Time;durP1;ratioP1;P1;durP2;ratioP2;P2;SDS_P1;SDS_P2;PMS_P1;PMS_P2;Temp;Humidity;BMP_temperature;BMP_pressure;BME280_temperature;BME280_humidity;BME280_pressure;Samples;Min_cycle;Max_cycle;Signal;HPM_P1;HPM_P2
2021/08/16 00:00:44;;;;;;;11.40;9.65;;;;;;;17.59;100.00;95824.44;5059903;28;20059;-79
2021/08/16 00:03:10;;;;;;;14.95;9.38;;;;;;;17.58;100.00;95828.13;5044850;28;20466;-81
2021/08/16 00:05:36;;;;;;;12.50;8.63;;;;;;;17.66;100.00;95821.72;5070083;28;20462;-79
2021/08/16 00:08:06;;;;;;;14.38;8.60;;;;;;;17.70;100.00;95824.78;5056919;28;20039;-80
2021/08/16 00:10:33;;;;;;;17.08;9.18;;;;;;;17.72;100.00;95823.53;5069910;28;20028;-79
2021/08/16 00:12:58;;;;;;;13.77;8.45;;;;;;;17.68;100.00;95820.50;5071964;28;20024;-80
2021/08/16 00:15:24;;;;;;;16.35;9.23;;;;;;;17.73;100.00;95827.81;5072573;28;20104;-79
2021/08/16 00:17:50;;;;;;;13.82;9.52;;;;;;;17.73;100.00;95813.72;5079341;28;20037;-79
2021/08/16 00:20:16;;;;;;;16.27;10.07;;;;;;;17.77;100.00;95806.97;5071443;28;20028;-78
2021/08/16 00:22:42;;;;;;;15.63;9.05;;;;;;;17.82;100.00;95807.97;5073404;28;20027;-79
2021/08/16 00:25:07;;;;;;;15.45;8.98;;;;;;;17.83;100.00;95814.91;5085004;28;20077;-79
2021/08/16 00:27:34;;;;;;;11.48;8.63;;;;;;;17.81;100.00;95805.53;5067210;28;20016;-79
2021/08/16 00:30:02;;;;;;;13.60;8.73;;;;;;;17.82;100.00;95802.63;5077647;28;20040;-79
2021/08/16 00:32:28;;;;;;;12.93;8.85;;;;;;;17.79;100.00;95811.03;5077150;28;20024;-79
2021/08/16 00:34:53;;;;;;;13.60;8.75;;;;;;;17.90;100.00;95809.53;5057627;28;20040;-79
2021/08/16 00:37:19;;;;;;;12.30;8.38;;;;;;;17.96;100.00;95795.38;5077787;28;20509;-80
2021/08/16 00:39:45;;;;;;;12.30;8.85;;;;;;;17.89;100.00;95806.06;5077075;28;20032;-79
2021/08/16 00:42:12;;;;;;;13.18;8.45;;;;;;;17.90;100.00;95801.56;5080702;28;20497;-79
2021/08/16 00:44:39;;;;;;;10.82;8.43;;;;;;;17.85;100.00;95793.41;5067432;28;20509;-80
2021/08/16 00:47:05;;;;;;;12.93;8.20;;;;;;;17.79;100.00;95788.94;5082309;28;20019;-79
2021/08/16 00:49:31;;;;;;;12.98;8.80;;;;;;;17.70;100.00;95790.19;5065752;28;20032;-80
2021/08/16 00:51:57;;;;;;;11.23;8.73;;;;;;;17.71;100.00;95794.50;5057481;28;20089;-79
2021/08/16 00:54:23;;;;;;;13.52;8.60;;;;;;;17.73;100.00;95798.56;5083509;28;20175;-79
2021/08/16 00:56:49;;;;;;;11.93;8.73;;;;;;;17.75;100.00;95796.53;5067580;28;20472;-80
2021/08/16 00:59:16;;;;;;;11.60;9.23;;;;;;;17.80;100.00;95799.38;5086177;28;20792;-79
2021/08/16 01:01:42;;;;;;;12.75;9.38;;;;;;;17.83;100.00;95804.25;5077183;28;20038;-80
2021/08/16 01:04:08;;;;;;;12.43;7.60;;;;;;;17.88;100.00;95798.31;5066014;28;20020;-80
2021/08/16 01:06:35;;;;;;;14.85;9.70;;;;;;;17.88;100.00;95790.34;5084191;28;20024;-79
2021/08/16 01:09:01;;;;;;;14.98;7.95;;;;;;;17.89;100.00;95784.78;5083099;28;20065;-79
2021/08/16 01:11:27;;;;;;;12.40;9.40;;;;;;;17.90;100.00;95777.59;5057212;28;20396;-80
2021/08/16 01:13:53;;;;;;;13.15;9.07;;;;;;;17.94;100.00;95789.47;5088880;28;20085;-80
2021/08/16 01:16:20;;;;;;;11.25;8.88;;;;;;;17.94;100.00;95788.63;5075630;28;20028;-80
2021/08/16 01:18:47;;;;;;;12.95;8.60;;;;;;;17.88;100.00;95788.47;5071290;28;20115;-80
2021/08/16 01:21:15;;;;;;;14.10;8.82;;;;;;;17.93;100.00;95787.00;5065648;28;20031;-80
2021/08/16 01:23:42;;;;;;;13.00;9.20;;;;;;;17.85;100.00;95793.41;5070708;28;20029;-79
2021/08/16 01:26:08;;;;;;;17.42;9.30;;;;;;;17.86;100.00;95795.84;5087038;28;20465;-80
2021/08/16 01:28:34;;;;;;;13.35;9.35;;;;;;;17.98;100.00;95787.19;5060081;28;20481;-79
2021/08/16 01:31:03;;;;;;;11.68;8.73;;;;;;;17.99;100.00;95789.63;5072591;28;20093;-79
2021/08/16 01:33:30;;;;;;;13.38;8.32;;;;;;;17.97;100.00;95788.19;5060678;28;20117;-80
2021/08/16 01:35:56;;;;;;;11.88;8.30;;;;;;;17.95;100.00;95785.78;5067716;28;20464;-80
2021/08/16 01:38:26;;;;;;;16.60;9.38;;;;;;;17.98;100.00;95789.84;5059238;28;20067;-79
2021/08/16 01:40:52;;;;;;;16.20;9.68;;;;;;;17.95;100.00;95785.78;5053886;28;20028;-80
2021/08/16 01:43:18;;;;;;;13.90;9.13;;;;;;;18.01;100.00;95790.22;5082028;28;20032;-79
2021/08/16 01:45:43;;;;;;;13.15;8.75;;;;;;;18.11;100.00;95790.56;5056493;28;20028;-80
2021/08/16 01:48:13;;;;;;;14.77;9.32;;;;;;;18.07;100.00;95784.03;5056345;28;20025;-80
2021/08/16 01:50:39;;;;;;;12.70;9.10;;;;;;;18.16;100.00;95794.41;5061337;28;20117;-79
2021/08/16 01:53:04;;;;;;;13.07;9.98;;;;;;;18.27;100.00;95791.03;5079866;28;20020;-79
2021/08/16 01:55:30;;;;;;;12.55;8.98;;;;;;;18.28;100.00;95790.03;5075647;28;20520;-80
2021/08/16 01:57:56;;;;;;;12.15;8.93;;;;;;;18.32;100.00;95784.03;5062389;28;20024;-80
2021/08/16 02:00:22;;;;;;;13.70;9.73;;;;;;;18.38;100.00;95774.34;5072550;28;20557;-81
2021/08/16 02:02:47;;;;;;;12.15;9.52;;;;;;;18.42;100.00;95772.88;5083607;28;20085;-80
2021/08/16 02:05:13;;;;;;;11.95;10.02;;;;;;;18.43;100.00;95760.38;5060319;28;20065;-79
2021/08/16 02:07:39;;;;;;;15.23;8.75;;;;;;;18.37;100.00;95751.41;5079074;28;20122;-79
2021/08/16 02:10:05;;;;;;;13.75;8.73;;;;;;;18.22;100.00;95753.63;5083102;28;20149;-80
2021/08/16 02:12:31;;;;;;;13.13;8.32;;;;;;;18.18;100.00;95757.75;5073870;28;20020;-80
2021/08/16 02:14:57;;;;;;;11.57;7.03;;;;;;;18.13;100.00;95761.88;5089407;28;20497;-79
2021/08/16 02:17:22;;;;;;;11.02;8.65;;;;;;;17.98;100.00;95769.38;5089058;28;20484;-80
2021/08/16 02:19:48;;;;;;;12.90;8.80;;;;;;;17.96;100.00;95767.97;5095576;28;20035;-80
2021/08/16 02:22:17;;;;;;;12.35;8.35;;;;;;;17.94;100.00;95768.19;5092779;28;20036;-80
2021/08/16 02:24:43;;;;;;;13.30;8.48;;;;;;;17.97;100.00;95764.25;5068784;28;20634;-80
2021/08/16 02:27:09;;;;;;;12.32;8.90;;;;;;;17.96;100.00;95768.78;5058671;28;20031;-80
2021/08/16 02:29:35;;;;;;;18.90;9.98;;;;;;;17.95;100.00;95791.09;5068967;28;20028;-80
2021/08/16 02:32:01;;;;;;;17.23;11.00;;;;;;;18.03;100.00;95782.84;5056348;28;20033;-79
2021/08/16 02:34:27;;;;;;;15.55;9.68;;;;;;;18.02;100.00;95781.22;5066862;28;20086;-80
2021/08/16 02:36:52;;;;;;;12.50;9.52;;;;;;;18.06;100.00;95777.06;5077014;28;20040;-80
2021/08/16 02:39:18;;;;;;;14.95;10.13;;;;;;;18.03;100.00;95777.50;5065063;28;20028;-80
2021/08/16 02:41:44;;;;;;;14.05;9.95;;;;;;;18.03;100.00;95777.50;5088578;28;20009;-80
2021/08/16 02:44:10;;;;;;;19.60;10.50;;;;;;;18.01;100.00;95790.22;5072231;28;20029;-80
2021/08/16 02:46:36;;;;;;;18.15;9.57;;;;;;;17.99;100.00;95792.28;5068640;28;20048;-80
2021/08/16 02:49:02;;;;;;;15.80;10.18;;;;;;;17.99;100.00;95783.50;5054392;28;20108;-79
2021/08/16 02:51:28;;;;;;;15.73;10.57;;;;;;;18.05;100.00;95791.41;5063053;28;20077;-81
2021/08/16 02:53:54;;;;;;;18.85;11.13;;;;;;;18.12;100.00;95780.72;5069817;28;20040;-80
2021/08/16 02:56:20;;;;;;;13.35;10.32;;;;;;;18.05;100.00;95785.28;5059358;28;20044;-80
2021/08/16 02:58:46;;;;;;;14.85;10.10;;;;;;;18.09;100.00;95781.97;5068628;28;20489;-80
2021/08/16 03:01:12;;;;;;;17.42;11.15;;;;;;;18.12;100.00;95780.72;5080797;28;20031;-79
2021/08/16 03:03:37;;;;;;;17.48;11.63;;;;;;;18.14;100.00;95784.81;5073262;28;20020;-79
2021/08/16 03:06:04;;;;;;;17.20;10.40;;;;;;;18.20;100.00;95784.94;5059572;28;20048;-80
2021/08/16 03:08:32;;;;;;;17.42;11.65;;;;;;;18.19;100.00;95775.34;5066992;28;20489;-80
2021/08/16 03:10:57;;;;;;;12.93;10.45;;;;;;;18.21;100.00;95776.78;5079108;28;20081;-80
2021/08/16 03:13:23;;;;;;;17.42;11.20;;;;;;;18.25;100.00;95790.44;5064248;28;20447;-80
2021/08/16 03:15:49;;;;;;;15.98;11.15;;;;;;;18.31;100.00;95781.59;5077131;28;20035;-79
2021/08/16 03:18:14;;;;;;;14.85;11.50;;;;;;;18.34;100.00;95786.47;5054229;28;20127;-79
2021/08/16 03:20:40;;;;;;;15.07;11.23;;;;;;;18.27;100.00;95789.19;5054551;28;20405;-79
2021/08/16 03:23:06;;;;;;;16.08;11.38;;;;;;;18.26;100.00;95800.06;5077909;28;20016;-80
2021/08/16 03:25:32;;;;;;;14.90;10.88;;;;;;;18.27;100.00;95797.16;5070586;28;20028;-79
2021/08/16 03:27:57;;;;;;;13.07;10.43;;;;;;;18.33;100.00;95779.50;5061627;28;20024;-80
2021/08/16 03:30:23;;;;;;;16.73;11.45;;;;;;;18.37;100.00;95784.16;5072008;28;20155;-79
2021/08/16 03:32:50;;;;;;;17.70;10.30;;;;;;;18.38;100.00;95767.19;5069779;28;20038;-79
2021/08/16 03:35:16;;;;;;;18.63;11.85;;;;;;;18.44;100.00;95777.97;5054064;28;20032;-79
2021/08/16 03:37:43;;;;;;;18.10;11.85;;;;;;;18.41;100.00;95773.09;5070833;28;20422;-79
2021/08/16 03:40:09;;;;;;;14.98;10.45;;;;;;;18.39;100.00;95768.00;5068249;28;20035;-79
2021/08/16 03:42:36;;;;;;;14.05;10.68;;;;;;;18.39;100.00;95765.34;5050621;28;20032;-79
2021/08/16 03:45:22;;;;;;;17.90;11.63;;;;;;;18.40;100.00;95776.78;5066883;28;20031;-79
2021/08/16 03:47:48;;;;;;;15.95;11.65;;;;;;;18.32;100.00;95780.56;5037299;28;20055;-79
2021/08/16 03:50:14;;;;;;;16.33;10.25;;;;;;;18.25;100.00;95782.47;5071866;28;20028;-80
2021/08/16 03:52:40;;;;;;;13.55;10.05;;;;;;;18.18;100.00;95771.06;5078926;28;20086;-80
2021/08/16 03:55:07;;;;;;;16.20;10.73;;;;;;;18.20;100.00;95768.97;5075168;28;20024;-80
2021/08/16 03:57:32;;;;;;;17.98;10.98;;;;;;;18.20;100.00;95775.13;5071489;28;20020;-81
2021/08/16 03:59:58;;;;;;;15.43;10.77;;;;;;;18.17;100.00;95767.56;5053349;28;20408;-80
2021/08/16 04:02:24;;;;;;;18.45;10.80;;;;;;;18.18;100.00;95774.53;5086826;28;20038;-79
2021/08/16 04:04:50;;;;;;;20.05;10.75;;;;;;;18.20;100.00;95774.31;5085427;28;20016;-80
2021/08/16 04:07:16;;;;;;;15.68;10.35;;;;;;;18.10;100.00;95778.25;5051091;28;20126;-80
2021/08/16 04:09:41;;;;;;;18.42;10.70;;;;;;;18.10;100.00;95785.44;5074309;28;20062;-80
2021/08/16 04:12:07;;;;;;;15.05;10.65;;;;;;;18.07;100.00;95784.03;5066936;28;20062;-80
2021/08/16 04:14:33;;;;;;;15.13;10.65;;;;;;;18.07;100.00;95784.03;5057506;28;20029;-79
2021/08/16 04:16:59;;;;;;;15.23;10.68;;;;;;;18.09;100.00;95781.97;5078352;28;20025;-80
2021/08/16 04:19:25;;;;;;;15.43;10.20;;;;;;;18.11;100.00;95793.22;5061924;28;20025;-80
2021/08/16 04:21:51;;;;;;;16.65;10.90;;;;;;;18.09;100.00;95791.81;5084731;28;20020;-80
2021/08/16 04:24:18;;;;;;;17.92;10.90;;;;;;;18.03;100.00;95785.50;5069850;28;20048;-80
2021/08/16 04:26:43;;;;;;;15.45;9.57;;;;;;;18.03;100.00;95788.16;5077789;28;20020;-81
2021/08/16 04:29:09;;;;;;;17.40;10.93;;;;;;;18.06;100.00;95790.38;5081426;28;20032;-80
2021/08/16 04:31:37;;;;;;;14.80;10.60;;;;;;;18.05;100.00;95796.75;5077262;28;20397;-81
2021/08/16 04:34:03;;;;;;;12.60;9.32;;;;;;;18.09;100.00;95799.78;5057864;28;20024;-80
2021/08/16 04:36:28;;;;;;;16.40;10.38;;;;;;;18.03;100.00;95803.31;5079597;28;20016;-80
2021/08/16 04:38:54;;;;;;;15.90;9.50;;;;;;;18.05;100.00;95795.94;5074707;28;20036;-80
2021/08/16 04:41:20;;;;;;;12.30;9.73;;;;;;;18.04;100.00;95799.59;5063648;28;20096;-79
2021/08/16 04:43:45;;;;;;;12.23;8.48;;;;;;;18.13;100.00;95809.75;5080487;28;20385;-79
2021/08/16 04:46:11;;;;;;;12.18;8.00;;;;;;;18.20;100.00;95808.91;5055574;28;20063;-80
2021/08/16 04:48:37;;;;;;;14.00;7.75;;;;;;;18.22;100.00;95812.19;5059556;28;20029;-79
2021/08/16 04:51:02;;;;;;;10.02;7.03;;;;;;;18.26;100.00;95824.81;5056397;28;20035;-81
2021/08/16 04:53:28;;;;;;;14.50;8.43;;;;;;;18.31;100.00;95821.53;5053644;28;20123;-79
2021/08/16 04:55:54;;;;;;;11.52;8.10;;;;;;;18.34;100.00;95826.38;5068392;28;20040;-79
2021/08/16 04:58:20;;;;;;;15.05;8.18;;;;;;;18.31;100.00;95825.00;5073975;28;20028;-79
2021/08/16 05:00:45;;;;;;;13.70;8.60;;;;;;;18.32;100.00;95839.13;5079998;28;20551;-79
2021/08/16 05:03:11;;;;;;;14.95;9.23;;;;;;;18.38;100.00;95843.59;5064573;28;20036;-80
2021/08/16 05:05:37;;;;;;;15.02;10.00;;;;;;;18.45;100.00;95843.53;5073078;28;20016;-79
2021/08/16 05:08:03;;;;;;;10.68;7.75;;;;;;;18.54;100.00;95842.19;5083650;28;20417;-79
2021/08/16 05:10:31;;;;;;;12.60;8.38;;;;;;;18.58;100.00;95844.22;5088606;28;20039;-79
2021/08/16 05:12:59;;;;;;;11.02;7.45;;;;;;;18.57;100.00;95858.53;5088434;28;20493;-79
2021/08/16 05:15:25;;;;;;;11.07;7.13;;;;;;;18.66;100.00;95863.63;5063795;28;20028;-80
2021/08/16 05:17:51;;;;;;;10.13;7.40;;;;;;;18.69;100.00;95866.66;5086944;28;20098;-79
2021/08/16 05:20:18;;;;;;;10.93;7.20;;;;;;;18.72;100.00;95865.44;5060840;28;20035;-79
2021/08/16 05:22:46;;;;;;;12.63;7.72;;;;;;;18.70;100.00;95856.81;5068546;28;20024;-80
2021/08/16 05:25:13;;;;;;;18.15;8.18;;;;;;;18.77;100.00;95863.72;5074051;28;20033;-78
2021/08/16 05:27:40;;;;;;;14.20;11.10;;;;;;;18.81;100.00;95861.44;5075454;28;20089;-78
2021/08/16 05:30:08;;;;;;;15.93;10.27;;;;;;;18.98;100.00;95862.50;5082028;28;20040;-79
2021/08/16 05:32:33;;;;;;;11.90;7.97;;;;;;;19.03;100.00;95878.63;5069727;28;20043;-78
2021/08/16 05:34:59;;;;;;;11.60;9.13;;;;;;;19.13;100.00;95877.31;5072241;28;20032;-78
2021/08/16 05:37:25;;;;;;;10.82;9.40;;;;;;;19.12;100.00;95881.84;5084055;28;20028;-79
2021/08/16 05:39:50;;;;;;;15.75;9.60;;;;;;;19.09;100.00;95892.94;5077998;28;20024;-78
2021/08/16 05:42:17;;;;;;;17.02;10.35;;;;;;;19.22;100.00;95889.31;5064556;28;20032;-79
2021/08/16 05:44:42;;;;;;;14.27;9.88;;;;;;;19.25;100.00;95880.88;5085360;28;20028;-79
2021/08/16 05:47:08;;;;;;;13.93;10.45;;;;;;;19.31;100.00;95893.31;5081780;28;20023;-79
2021/08/16 05:49:34;;;;;;;13.55;10.23;;;;;;;19.23;100.00;95898.94;5089958;28;20032;-78
2021/08/16 05:52:00;;;;;;;14.05;10.52;;;;;;;19.22;100.00;95902.66;5060290;28;20169;-78
2021/08/16 05:54:26;;;;;;;17.25;11.80;;;;;;;19.16;100.00;95903.53;5061568;28;20044;-78
2021/08/16 05:56:52;;;;;;;13.80;10.25;;;;;;;19.05;100.00;95913.09;5060007;28;20127;-79
2021/08/16 05:59:17;;;;;;;15.05;11.52;;;;;;;19.10;100.00;95920.41;5077766;28;20028;-80
2021/08/16 06:01:43;;;;;;;15.23;11.90;;;;;;;19.21;100.00;95919.66;5080108;28;20089;-79
2021/08/16 06:04:09;;;;;;;16.17;10.70;;;;;;;19.41;100.00;95920.28;5048143;28;20692;-78
2021/08/16 06:06:35;;;;;;;16.27;10.98;;;;;;;19.34;100.00;95927.53;5054191;28;20489;-78
2021/08/16 06:09:02;;;;;;;13.07;10.20;;;;;;;19.24;100.00;95932.56;5063437;28;20043;-78
2021/08/16 06:11:29;;;;;;;14.18;10.40;;;;;;;19.20;100.00;95923.38;5073187;28;20036;-78
2021/08/16 06:13:54;;;;;;;20.10;14.38;;;;;;;19.19;100.00;95935.09;5067065;28;20111;-78
2021/08/16 06:16:20;;;;;;;16.73;11.82;;;;;;;19.30;100.00;95934.34;5082111;28;20131;-78
2021/08/16 06:18:46;;;;;;;19.42;14.02;;;;;;;19.27;100.00;95932.13;5076162;28;20047;-78
2021/08/16 06:21:12;;;;;;;13.48;10.32;;;;;;;19.13;100.00;95928.78;5083001;28;20111;-78
2021/08/16 06:23:38;;;;;;;17.98;10.70;;;;;;;19.18;99.38;95928.09;5073381;28;20035;-78
2021/08/16 06:26:04;;;;;;;13.82;11.02;;;;;;;19.21;98.39;95933.00;5059697;28;20017;-78
2021/08/16 06:28:31;;;;;;;12.85;10.32;;;;;;;19.15;97.81;95936.53;5061236;28;20586;-78
2021/08/16 06:30:57;;;;;;;12.77;10.00;;;;;;;19.16;96.66;95943.53;5061640;28;20032;-78
2021/08/16 06:33:23;;;;;;;13.45;9.80;;;;;;;19.10;95.96;95939.88;5074416;28;20036;-78
2021/08/16 06:35:50;;;;;;;14.32;10.15;;;;;;;19.17;96.13;95947.81;5071336;28;20024;-78
2021/08/16 06:38:23;;;;;;;12.88;8.35;;;;;;;19.06;96.11;95950.16;5067611;28;20115;-79
2021/08/16 06:40:54;;;;;;;12.75;8.82;;;;;;;19.12;94.76;95942.34;5080401;28;20045;-78
2021/08/16 06:43:22;;;;;;;10.85;8.10;;;;;;;19.20;95.05;95942.84;5071624;28;20032;-79
2021/08/16 06:45:48;;;;;;;13.90;9.02;;;;;;;19.45;94.10;95950.81;5069945;28;20027;-79
2021/08/16 06:48:15;;;;;;;15.75;9.15;;;;;;;19.38;92.78;95950.03;5083424;28;20040;-79
2021/08/16 06:50:41;;;;;;;11.45;8.63;;;;;;;19.50;93.07;95953.63;5061790;28;20029;-79
2021/08/16 06:53:11;;;;;;;14.13;10.02;;;;;;;19.28;93.89;95960.41;5076125;28;20087;-79
2021/08/16 06:55:37;;;;;;;12.80;9.73;;;;;;;19.44;94.60;95959.81;5066901;28;20028;-79
2021/08/16 06:58:03;;;;;;;9.98;7.28;;;;;;;19.39;93.94;95957.03;5058484;28;20469;-79
2021/08/16 07:00:32;;;;;;;10.70;6.85;;;;;;;19.19;94.90;95959.06;5084677;28;20028;-79
2021/08/16 07:02:59;;;;;;;11.63;6.97;;;;;;;19.05;96.35;95966.38;5075881;28;20045;-78
2021/08/16 07:05:25;;;;;;;9.82;6.22;;;;;;;19.11;95.41;95956.69;5075126;28;20032;-78
2021/08/16 07:07:52;;;;;;;9.45;6.30;;;;;;;18.90;96.38;95964.03;5075573;28;20077;-78
2021/08/16 07:10:19;;;;;;;8.63;6.55;;;;;;;18.92;97.16;95977.97;5077274;28;20094;-78
2021/08/16 07:12:45;;;;;;;12.15;7.00;;;;;;;18.77;98.17;95974.81;5081732;28;20032;-78
2021/08/16 07:15:11;;;;;;;11.70;6.95;;;;;;;18.87;97.22;95974.31;5081018;28;20131;-78
2021/08/16 07:17:37;;;;;;;11.65;6.68;;;;;;;19.29;95.04;95978.06;5066231;28;20020;-78
2021/08/16 07:20:05;;;;;;;11.27;6.32;;;;;;;20.07;90.50;95968.56;5081825;28;20105;-79
2021/08/16 07:22:30;;;;;;;12.65;6.78;;;;;;;20.89;86.85;95969.69;5069994;28;20028;-80
2021/08/16 07:24:56;;;;;;;13.63;7.55;;;;;;;20.66;87.40;95977.66;5060721;28;20035;-78
2021/08/16 07:27:22;;;;;;;11.38;7.05;;;;;;;20.49;89.27;95972.94;5074621;28;20107;-78
2021/08/16 07:29:48;;;;;;;13.30;7.43;;;;;;;20.16;90.12;95976.06;5077756;28;20057;-78
2021/08/16 07:32:14;;;;;;;10.30;6.63;;;;;;;20.24;89.98;95974.91;5089500;28;20119;-78
2021/08/16 07:34:39;;;;;;;11.05;6.50;;;;;;;20.21;89.84;95986.84;5069619;28;20031;-80
2021/08/16 07:37:08;;;;;;;11.10;6.88;;;;;;;20.05;90.04;95975.97;5061352;28;20112;-78
2021/08/16 07:39:34;;;;;;;9.70;6.22;;;;;;;19.95;90.87;95969.34;5051237;28;20067;-78
2021/08/16 07:41:59;;;;;;;11.45;7.28;;;;;;;19.77;90.01;95975.50;5068605;28;20089;-78
2021/08/16 07:44:25;;;;;;;12.10;6.88;;;;;;;19.75;90.05;95974.09;5066245;28;20493;-78
2021/08/16 07:46:51;;;;;;;11.85;6.43;;;;;;;20.26;88.80;95978.19;5074989;28;20036;-78
2021/08/16 07:49:17;;;;;;;10.00;6.55;;;;;;;20.38;87.67;95979.03;5060280;28;20029;-78
2021/08/16 07:51:43;;;;;;;11.45;6.43;;;;;;;21.25;83.53;95970.50;5068055;28;20496;-78
2021/08/16 07:54:09;;;;;;;14.32;6.55;;;;;;;20.85;85.82;95989.88;5067275;28;20085;-78
2021/08/16 07:56:34;;;;;;;9.23;6.13;;;;;;;20.59;84.14;95987.59;5087647;28;20078;-78
2021/08/16 07:59:00;;;;;;;12.05;6.03;;;;;;;20.97;83.45;95989.09;5074131;28;20028;-79
2021/08/16 08:01:26;;;;;;;11.18;6.13;;;;;;;20.54;83.74;95980.28;5079633;28;20033;-79
2021/08/16 08:03:51;;;;;;;13.55;6.22;;;;;;;21.14;79.92;95974.81;5074599;28;20082;-78
2021/08/16 08:06:18;;;;;;;9.10;5.78;;;;;;;21.77;77.77;95972.47;5062485;28;20031;-78
2021/08/16 08:08:44;;;;;;;10.23;5.20;;;;;;;22.65;71.09;95965.03;5068385;28;20439;-78
2021/08/16 08:11:10;;;;;;;8.73;5.47;;;;;;;23.11;68.18;95963.97;5077368;28;20030;-78
2021/08/16 08:13:38;;;;;;;10.02;5.43;;;;;;;23.29;65.74;95957.50;5080514;28;20386;-78
2021/08/16 08:16:03;;;;;;;11.43;4.88;;;;;;;23.61;64.62;95949.66;5053297;28;20577;-78
2021/08/16 08:18:29;;;;;;;10.32;5.07;;;;;;;23.71;62.81;95955.19;5062244;28;20056;-78
2021/08/16 08:20:55;;;;;;;8.05;4.28;;;;;;;24.27;61.39;95957.69;5078586;28;20016;-78
2021/08/16 08:23:20;;;;;;;6.88;3.75;;;;;;;24.45;61.87;95959.28;5069576;28;20052;-78
2021/08/16 08:25:46;;;;;;;7.72;4.03;;;;;;;24.73;59.69;95957.38;5077596;28;20111;-78
2021/08/16 08:28:15;;;;;;;8.27;4.20;;;;;;;24.32;62.00;95965.03;5076048;28;20534;-79
2021/08/16 08:30:43;;;;;;;8.25;4.47;;;;;;;23.59;65.25;95967.88;5074106;28;20032;-78
2021/08/16 08:33:11;;;;;;;6.85;4.88;;;;;;;23.29;64.89;95974.41;5068813;28;20012;-78
2021/08/16 08:35:38;;;;;;;7.53;4.13;;;;;;;23.10;65.20;95974.91;5072156;28;20040;-78
2021/08/16 08:38:04;;;;;;;10.23;3.95;;;;;;;24.10;61.16;95970.41;5068825;28;20036;-78
2021/08/16 08:40:30;;;;;;;7.18;3.55;;;;;;;24.59;57.71;95960.47;5063235;28;20034;-77
2021/08/16 08:42:56;;;;;;;8.25;3.97;;;;;;;23.74;61.44;95970.78;5072553;28;20146;-78
2021/08/16 08:45:24;;;;;;;6.50;3.80;;;;;;;23.39;62.46;95967.59;5072546;28;20116;-78
2021/08/16 08:47:51;;;;;;;9.02;3.97;;;;;;;25.30;57.46;95968.34;5071460;28;20535;-78
2021/08/16 08:50:18;;;;;;;9.25;3.72;;;;;;;25.37;54.64;95970.81;5069619;28;20583;-78
2021/08/16 08:52:44;;;;;;;8.30;3.67;;;;;;;25.50;53.98;95959.59;5070034;28;20107;-79
2021/08/16 08:55:11;;;;;;;7.57;3.67;;;;;;;25.04;54.19;95961.94;5071718;28;20024;-79
2021/08/16 08:57:38;;;;;;;9.40;4.00;;;;;;;26.07;50.37;95958.81;5071897;28;20024;-76
2021/08/16 09:00:08;;;;;;;8.02;3.45;;;;;;;25.54;51.88;95965.25;5083446;28;20021;-78
2021/08/16 09:02:35;;;;;;;5.80;3.33;;;;;;;24.53;53.72;95969.56;5079923;28;20028;-78
2021/08/16 09:05:02;;;;;;;7.07;3.80;;;;;;;24.98;52.89;95962.94;5076787;28;20679;-79
2021/08/16 09:07:36;;;;;;;17.08;3.50;;;;;;;23.93;55.04;95970.47;5071170;28;20012;-79
2021/08/16 09:10:09;;;;;;;6.82;4.03;;;;;;;23.59;55.74;95978.59;5083982;28;20046;-79
2021/08/16 09:12:35;;;;;;;;;;;;;;;22.19;60.00;95975.72;5073281;28;20033;-78
2021/08/16 09:15:12;;;;;;;7.32;4.28;;;;;;;24.51;54.05;95971.69;5071775;28;19912;-79
2021/08/16 09:17:37;;;;;;;9.38;4.38;;;;;;;24.68;52.69;95969.72;5072717;28;20437;-79
2021/08/16 09:20:24;;;;;;;10.00;4.85;;;;;;;24.52;51.16;95959.88;5054574;28;20032;-78
2021/08/16 09:23:03;;;;;;;10.00;5.10;;;;;;;25.09;48.65;95963.88;5072399;28;20537;-78
2021/08/16 09:25:34;;;;;;;11.40;5.93;;;;;;;24.19;50.94;95974.28;5078206;28;20105;-79
2021/08/16 09:28:00;;;;;;;11.00;5.78;;;;;;;24.02;51.64;95971.66;5054385;28;20029;-78
2021/08/16 09:30:34;;;;;;;10.70;5.47;;;;;;;23.95;51.45;95969.16;5071475;28;20033;-79
2021/08/16 09:33:12;;;;;;;13.48;5.82;;;;;;;24.17;50.74;95957.59;5076324;28;20056;-78
2021/08/16 09:35:55;;;;;;;9.75;5.22;;;;;;;23.97;51.61;95953.59;5073493;28;20460;-78
2021/08/16 09:38:50;;;;;;;9.05;4.97;;;;;;;25.53;46.80;95955.56;5068552;28;20564;-80
2021/08/16 09:41:19;;;;;;;9.05;4.90;;;;;;;25.88;46.71;95949.56;5045169;28;20076;-80
2021/08/16 09:43:45;;;;;;;10.55;5.28;;;;;;;25.46;47.57;95947.72;5057102;28;20029;-79
2021/08/16 09:46:13;;;;;;;10.27;4.90;;;;;;;25.64;46.27;95960.75;5084432;28;20036;-79
2021/08/16 09:48:38;;;;;;;9.15;4.60;;;;;;;26.62;44.91;95956.53;5078254;28;20032;-80
2021/08/16 09:51:04;;;;;;;9.65;5.25;;;;;;;25.89;45.88;95959.28;5083866;28;20028;-80
2021/08/16 09:53:32;;;;;;;10.98;5.03;;;;;;;24.59;50.00;95960.47;5075327;28;20031;-80
2021/08/16 09:56:01;;;;;;;11.68;5.30;;;;;;;24.92;48.91;95964.81;5082326;28;20040;-79
2021/08/16 09:58:29;;;;;;;12.63;5.18;;;;;;;23.64;52.07;95959.06;5074386;28;20113;-79
2021/08/16 10:00:56;;;;;;;9.55;5.45;;;;;;;23.36;52.54;95963.50;5075225;28;20031;-80
2021/08/16 10:03:22;;;;;;;10.05;4.80;;;;;;;23.33;53.58;95963.19;5051002;28;20036;-79
2021/08/16 10:05:49;;;;;;;11.50;5.63;;;;;;;22.92;54.35;95962.53;5077964;28;20032;-80
2021/08/16 10:08:24;;;;;;;9.60;5.07;;;;;;;24.15;51.22;95960.53;5071545;28;20055;-79
2021/08/16 10:10:53;;;;;;;9.55;5.30;;;;;;;23.52;52.82;95972.59;5062431;28;20036;-79
2021/08/16 10:13:22;;;;;;;11.60;5.80;;;;;;;24.16;51.57;95964.03;5053123;28;20650;-79
2021/08/16 10:15:56;;;;;;;10.18;5.38;;;;;;;24.17;51.21;95962.97;5077644;28;20052;-78
2021/08/16 10:18:30;;;;;;;9.70;4.93;;;;;;;24.44;49.54;95957.63;5071044;28;20098;-79
2021/08/16 10:20:56;;;;;;;9.73;5.80;;;;;;;24.27;49.88;95956.88;5067017;28;20027;-79
2021/08/16 10:23:24;;;;;;;11.20;6.07;;;;;;;23.73;51.15;95962.97;5069965;28;20036;-79
2021/08/16 10:25:52;;;;;;;9.85;5.25;;;;;;;23.36;52.22;95965.38;5071739;28;20028;-79
2021/08/16 10:28:32;;;;;;;9.40;4.80;;;;;;;23.13;53.78;95958.34;5080339;28;20036;-78
2021/08/16 10:31:01;;;;;;;9.43;4.95;;;;;;;23.53;52.22;95953.56;5074605;28;20114;-79
2021/08/16 10:33:27;;;;;;;9.68;5.72;;;;;;;24.03;51.72;95950.97;5074961;28;20037;-79
2021/08/16 10:35:54;;;;;;;10.70;5.40;;;;;;;23.51;52.31;95947.63;5079368;28;20036;-79
2021/08/16 10:38:21;;;;;;;9.63;4.88;;;;;;;23.98;51.86;95943.69;5071088;28;20040;-79
2021/08/16 10:40:56;;;;;;;10.65;4.50;;;;;;;23.50;52.69;95942.50;5074695;28;20448;-82
2021/08/16 10:43:33;;;;;;;11.65;5.05;;;;;;;22.85;54.58;95948.50;5072783;28;20029;-78
2021/08/16 10:46:00;;;;;;;10.88;4.80;;;;;;;23.16;54.59;95945.25;5065250;28;20040;-79
2021/08/16 10:48:34;;;;;;;10.02;4.57;;;;;;;23.58;52.44;95941.28;5071393;28;20028;-79
2021/08/16 10:51:04;;;;;;;10.50;4.80;;;;;;;23.36;52.96;95942.03;5069834;28;20040;-79
2021/08/16 10:53:31;;;;;;;8.52;4.30;;;;;;;23.83;51.88;95948.88;5074343;28;20035;-79
2021/08/16 10:55:57;;;;;;;7.90;4.15;;;;;;;23.19;52.29;95954.69;5078179;28;20114;-79
2021/08/16 10:58:24;;;;;;;10.07;4.95;;;;;;;23.01;53.73;95950.41;5077794;28;20074;-78
2021/08/16 11:00:50;;;;;;;9.65;4.40;;;;;;;22.71;54.30;95951.50;5079895;28;20032;-78
2021/08/16 11:03:22;;;;;;;8.95;4.63;;;;;;;22.96;54.57;95955.66;5069492;28;20105;-79
2021/08/16 11:05:48;;;;;;;10.68;6.32;;;;;;;23.74;53.14;95943.94;5069263;28;20077;-78
2021/08/16 11:08:14;;;;;;;10.90;4.88;;;;;;;22.96;54.04;95950.31;5054452;28;20150;-79
2021/08/16 11:10:43;;;;;;;10.20;5.00;;;;;;;22.91;53.50;95950.19;5073001;28;20059;-79
2021/08/16 11:13:10;;;;;;;9.50;4.30;;;;;;;23.42;53.44;95951.00;5083076;28;20028;-78
2021/08/16 11:15:38;;;;;;;10.10;4.82;;;;;;;23.71;53.06;95943.63;5076305;28;20062;-79
2021/08/16 11:18:11;;;;;;;13.18;4.82;;;;;;;24.03;51.23;95943.72;5076134;28;20089;-79